SBOSBO ATH / LGAV
Speedbird OnlineSpeedbird Online ATH / LGAV

Eleftherios Venizelos International Airport
10:19 19.9°C

Location Athens, Greece
Latitude: 37.9364013672
Longitude: 23.9444999695
Web Airport Website | Wikipedia
Altitude 94 Meter / 308 Feet
Distance 2,393 KM / 1,487 Miles
from London.
Time Zone UTC +3 hours (Europe/Athens)
Codes IATA: ATH
ICAO: LGAV
Currency £1 equals EUR 1.15
Runways
RunwayLength (m)Surface
03L3800Asphalt
03R4000Asphalt
21L4000Asphalt
21R3800Asphalt
Radio
TypeDescriptionFrequency
APPATHINAI APP126.575
ARRATHINAI ARR132.975
ATISATIS136.125
CLDCLNC DEL118.675
DEPATHINAI DEP128.95
DIRATHINAI DIR121.4
GNDGND121.75
INFOINFO136.025
PMSVATHINAI VOLMET127.8
RDORDO563.7
TWRTWR136.275
Live ATC
METAR LGAV 060650Z 35018G28KT 320V030 9999 FEW030 20/05 Q1024 TEMPO 35025G35KT
TAF TAF LGAV 060500Z 0606/0706 01020KT 9999 SCT025 SCT070 TEMPO 0606/0620 02024G34KT
Weather As Of 06 Oct 2022 10:19
Description Few clouds
Wind 33 km/h from North (350°)
Cloud Cover 20%
Precipitation Rain: none, Snow: none
Sunrise 07:23
Sunset 19:00
Lounges Goldair CIP Lounge, A
Skyserv Aristotle Onassis Lounge , International
Skyserv Melina Merkouri Lounge , Main Terminal
Swissport Executive Lounge, Main Terminal Building
Rotations During the last 90 days there were
384 flights from LHR
33 flights from LGW
1 flights from HER
386 flights to LHR
33 flights to LGW
1 flights to RHO


© 2017-2022 Speedbird Online